createdAt,value
2019-06-19T00:00:33.500Z,76740.75
2019-06-19T00:02:59.575Z,76738.75
2019-06-19T00:05:25.725Z,76734.75
2019-06-19T00:07:53.737Z,76737.75
2019-06-19T00:10:19.304Z,76730.74
2019-06-19T00:12:45.183Z,76729.74
2019-06-19T00:15:13.134Z,76731.74
2019-06-19T00:17:38.746Z,76730.74
2019-06-19T00:20:05.346Z,76730.74
2019-06-19T00:22:33.638Z,76730.74
2019-06-19T00:24:58.913Z,76725.73
2019-06-19T00:27:24.767Z,76725.73
2019-06-19T00:29:51.440Z,76725.73
2019-06-19T00:32:17.450Z,76722.73
2019-06-19T00:34:43.359Z,76724.73
2019-06-19T00:37:11.366Z,76723.73
2019-06-19T00:39:37.195Z,76721.73
2019-06-19T00:42:03.191Z,76718.73
2019-06-19T00:44:30.694Z,76724.73
2019-06-19T00:46:56.745Z,76722.73
2019-06-19T00:49:22.629Z,76717.73
2019-06-19T00:51:48.504Z,76719.73
2019-06-19T00:54:14.406Z,76713.73
2019-06-19T00:56:51.155Z,76707.73
2019-06-19T00:59:17.330Z,76709.73
2019-06-19T01:01:43.521Z,76705.72
2019-06-19T01:04:11.174Z,76706.73
2019-06-19T01:06:37.125Z,76700.72
2019-06-19T01:09:03.604Z,76699.72
2019-06-19T01:11:31.483Z,76705.72
2019-06-19T01:13:57.177Z,76702.72
2019-06-19T01:16:23.043Z,76700.72
2019-06-19T01:18:51.275Z,76700.72
2019-06-19T01:21:19.393Z,76707.73
2019-06-19T01:23:44.286Z,76705.72
2019-06-19T01:26:11.819Z,76703.72
2019-06-19T01:28:38.017Z,76701.72
2019-06-19T01:31:04.215Z,76701.72
2019-06-19T01:33:31.183Z,76706.73
2019-06-19T01:35:57.229Z,76701.72
2019-06-19T01:38:23.102Z,76704.72
2019-06-19T01:40:51.124Z,76703.72
2019-06-19T01:43:16.755Z,76702.72
2019-06-19T01:45:42.897Z,76701.72
2019-06-19T01:48:08.771Z,76699.72
2019-06-19T01:50:34.640Z,76697.72
2019-06-19T01:53:21.165Z,76699.72
2019-06-19T01:55:46.848Z,76696.72
2019-06-19T01:58:13.018Z,76698.72
2019-06-19T02:00:41.101Z,76697.72
2019-06-19T02:03:06.572Z,76698.72
2019-06-19T02:05:32.410Z,76698.72
2019-06-19T02:08:00.628Z,76696.72
2019-06-19T02:10:25.971Z,76694.72
2019-06-19T02:12:51.819Z,76686.70
2019-06-19T02:15:17.685Z,76688.71
2019-06-19T02:17:43.555Z,76683.70
2019-06-19T02:20:10.737Z,76677.70
2019-06-19T02:22:36.722Z,76672.70
2019-06-19T02:25:03.612Z,76668.70
2019-06-19T02:27:30.486Z,76667.70
2019-06-19T02:29:56.500Z,76665.69
2019-06-19T02:32:22.398Z,76665.69
2019-06-19T02:34:48.298Z,76666.69
2019-06-19T02:37:14.181Z,76667.70
2019-06-19T02:39:40.330Z,76664.69
2019-06-19T02:42:06.189Z,76662.69
2019-06-19T02:44:32.053Z,76661.69
2019-06-19T02:46:57.963Z,76660.69
2019-06-19T02:49:23.820Z,76661.69
2019-06-19T02:51:50.004Z,76661.69
2019-06-19T02:54:15.871Z,76662.69
2019-06-19T02:56:45.161Z,76658.69
2019-06-19T02:59:12.235Z,76656.69
2019-06-19T03:01:38.098Z,76652.69
2019-06-19T03:04:03.974Z,76653.69
2019-06-19T03:06:29.864Z,76660.69
2019-06-19T03:08:56.028Z,76663.69
2019-06-19T03:11:21.900Z,76660.69
2019-06-19T03:13:47.753Z,76661.69
2019-06-19T03:16:13.646Z,76664.69
2019-06-19T03:18:39.512Z,76662.69
2019-06-19T03:21:05.427Z,76660.69
2019-06-19T03:23:31.319Z,76653.69
2019-06-19T03:25:57.226Z,76659.69
2019-06-19T03:28:23.100Z,76653.69
2019-06-19T03:30:49.008Z,76655.69
2019-06-19T03:33:15.167Z,76653.69
2019-06-19T03:35:43.492Z,76647.68
2019-06-19T03:38:09.682Z,76652.69
2019-06-19T03:40:35.587Z,76649.68
2019-06-19T03:43:01.467Z,76650.69
2019-06-19T03:45:27.342Z,76645.68
2019-06-19T03:47:53.208Z,76646.68
2019-06-19T03:50:19.099Z,76645.68
2019-06-19T03:52:44.988Z,76642.67
2019-06-19T03:55:12.825Z,76647.68
2019-06-19T03:57:38.674Z,76640.67
2019-06-19T04:00:05.448Z,76632.67
2019-06-19T04:02:31.322Z,76634.67
2019-06-19T04:04:57.208Z,76634.67
2019-06-19T04:07:23.107Z,76633.67
2019-06-19T04:09:48.968Z,76628.67
2019-06-19T04:12:14.845Z,76633.67
2019-06-19T04:14:40.725Z,76633.67
2019-06-19T04:17:06.892Z,76634.67
2019-06-19T04:19:33.067Z,76634.67
2019-06-19T04:21:58.931Z,76637.67
2019-06-19T04:24:24.797Z,76633.67
2019-06-19T04:26:50.770Z,76629.67
2019-06-19T04:29:27.484Z,76625.66
2019-06-19T04:32:05.126Z,76629.67
2019-06-19T04:34:21.058Z,76622.66
2019-06-19T04:36:46.963Z,76620.66
2019-06-19T04:39:12.868Z,76619.66
2019-06-19T04:41:38.783Z,76618.66
2019-06-19T04:44:04.794Z,76619.66
2019-06-19T04:46:30.681Z,76619.66
2019-06-19T04:48:56.705Z,76621.66
2019-06-19T04:51:22.562Z,76619.66
2019-06-19T04:53:48.460Z,76614.66
2019-06-19T04:56:14.456Z,76612.66
2019-06-19T04:58:40.327Z,76610.66
2019-06-19T05:01:06.214Z,76610.66
2019-06-19T05:03:32.091Z,76610.66
2019-06-19T05:05:57.961Z,76612.66
2019-06-19T05:08:25.748Z,76612.66
2019-06-19T05:10:51.621Z,76614.66
2019-06-19T05:13:17.510Z,76613.66
2019-06-19T05:15:43.546Z,76614.66
2019-06-19T05:18:09.428Z,76614.66
2019-06-19T05:20:35.294Z,76611.66
2019-06-19T05:23:01.451Z,76622.66
2019-06-19T05:25:27.319Z,76618.66
2019-06-19T05:27:53.277Z,76620.66
2019-06-19T05:30:19.146Z,76625.66
2019-06-19T05:32:45.135Z,76620.66
2019-06-19T05:35:14.657Z,76620.66
2019-06-19T05:37:40.735Z,76613.66
2019-06-19T05:40:06.623Z,76612.66
2019-06-19T05:42:32.530Z,76614.66
2019-06-19T05:44:58.414Z,76610.66
2019-06-19T05:47:24.306Z,76610.66
2019-06-19T05:49:50.187Z,76611.66
2019-06-19T05:52:16.094Z,76608.66
2019-06-19T05:54:45.006Z,76607.66
2019-06-19T05:57:12.979Z,76608.66
2019-06-19T05:59:40.079Z,76604.64
2019-06-19T06:02:06.958Z,76608.66
2019-06-19T06:04:32.859Z,76605.65
2019-06-19T06:06:58.799Z,76606.65
2019-06-19T06:09:24.681Z,76605.65
2019-06-19T06:11:51.052Z,76605.65
2019-06-19T06:14:17.081Z,76608.66
2019-06-19T06:16:43.390Z,76604.64
2019-06-19T06:19:09.341Z,76603.64
2019-06-19T06:21:45.728Z,76603.64
2019-06-19T06:24:14.703Z,76604.64
2019-06-19T06:26:40.798Z,76600.64
2019-06-19T06:29:06.763Z,76598.64
2019-06-19T06:31:32.639Z,76597.64
2019-06-19T06:33:58.557Z,76591.64
2019-06-19T06:36:24.645Z,76594.64
2019-06-19T06:38:50.498Z,76590.64
2019-06-19T06:41:16.662Z,76589.64
2019-06-19T06:43:42.544Z,76590.64
2019-06-19T06:46:08.426Z,76590.64
2019-06-19T06:48:34.317Z,76583.63
2019-06-19T06:51:00.196Z,76582.63
2019-06-19T06:53:26.198Z,76582.63
2019-06-19T06:55:52.154Z,76582.63
2019-06-19T06:58:18.068Z,76585.63
2019-06-19T07:00:49.046Z,76583.63
2019-06-19T07:03:24.430Z,76583.63
2019-06-19T07:05:42.645Z,76579.63
2019-06-19T07:08:08.575Z,76580.63
2019-06-19T07:10:34.448Z,76576.63
2019-06-19T07:13:00.322Z,76576.63
2019-06-19T07:15:26.210Z,76573.63
2019-06-19T07:17:52.076Z,76575.63
2019-06-19T07:20:18.215Z,76576.63
2019-06-19T07:22:44.092Z,76573.63
2019-06-19T07:25:09.975Z,76570.63
2019-06-19T07:27:35.867Z,76567.63
2019-06-19T07:30:02.852Z,76568.63
2019-06-19T07:32:28.725Z,76568.63
2019-06-19T07:34:54.611Z,76565.63
2019-06-19T07:37:20.764Z,76559.61
2019-06-19T07:39:46.651Z,76562.62
2019-06-19T07:42:12.845Z,76562.62
2019-06-19T07:44:38.728Z,76564.62
2019-06-19T07:47:04.616Z,76562.62
2019-06-19T07:49:30.473Z,76563.62
2019-06-19T07:51:56.622Z,76560.62
2019-06-19T07:54:22.532Z,76561.62
2019-06-19T07:56:48.353Z,76559.61
2019-06-19T07:59:14.221Z,76557.61
2019-06-19T08:01:40.097Z,76556.61
2019-06-19T08:04:06.171Z,76548.61
2019-06-19T08:06:32.064Z,76548.61
2019-06-19T08:08:57.976Z,76537.60
2019-06-19T08:11:23.845Z,76548.61
2019-06-19T08:13:49.814Z,76544.61
2019-06-19T08:16:15.743Z,76546.61
2019-06-19T08:18:44.557Z,76545.61
2019-06-19T08:21:10.426Z,76544.61
2019-06-19T08:23:36.287Z,76541.60
2019-06-19T08:26:02.147Z,76541.60
2019-06-19T08:28:28.008Z,76539.60
2019-06-19T08:30:54.009Z,76539.60
2019-06-19T08:33:19.855Z,76533.59
2019-06-19T08:35:45.959Z,76534.59
2019-06-19T08:38:14.704Z,76537.60
2019-06-19T08:40:40.599Z,76535.59
2019-06-19T08:43:06.774Z,76530.59
2019-06-19T08:45:32.953Z,76526.59
2019-06-19T08:47:58.893Z,76523.59
2019-06-19T08:50:24.776Z,76518.59
2019-06-19T08:52:50.630Z,76519.59
2019-06-19T08:55:16.807Z,76519.59
2019-06-19T08:57:42.693Z,76518.59
2019-06-19T09:00:08.629Z,76515.59
2019-06-19T09:02:34.471Z,76518.59
2019-06-19T09:05:00.368Z,76514.59
2019-06-19T09:07:26.367Z,76514.59
2019-06-19T09:10:03.073Z,76514.59
2019-06-19T09:12:28.937Z,76510.58
2019-06-19T09:14:55.120Z,76511.58
2019-06-19T09:17:21.006Z,76510.58
2019-06-19T09:19:46.918Z,76508.58
2019-06-19T09:22:12.774Z,76511.58
2019-06-19T09:24:38.641Z,76505.58
2019-06-19T09:27:04.506Z,76507.58
2019-06-19T09:29:30.389Z,76504.58
2019-06-19T09:31:56.259Z,76500.57
2019-06-19T09:34:22.442Z,76499.57
2019-06-19T09:36:48.306Z,76499.57
2019-06-19T09:39:14.181Z,76495.57
2019-06-19T09:41:40.310Z,76493.56
2019-06-19T09:44:06.172Z,76499.57
2019-06-19T09:46:32.069Z,76494.56
2019-06-19T09:48:57.955Z,76491.56
2019-06-19T09:51:23.851Z,76494.56
2019-06-19T09:53:49.796Z,76494.56
2019-06-19T09:56:15.967Z,76491.56
2019-06-19T09:58:44.990Z,76486.56
2019-06-19T10:01:10.992Z,76484.56
2019-06-19T10:03:36.900Z,76482.56
2019-06-19T10:06:03.112Z,76482.56
2019-06-19T10:08:29.281Z,76477.55
2019-06-19T10:10:55.164Z,76475.55
2019-06-19T10:13:21.033Z,76477.55
2019-06-19T10:16:01.165Z,76474.55
2019-06-19T10:18:14.623Z,76478.56
2019-06-19T10:20:40.529Z,76477.55
2019-06-19T10:23:06.402Z,76470.55
2019-06-19T10:25:32.251Z,76472.55
2019-06-19T10:27:58.142Z,76470.55
2019-06-19T10:30:36.743Z,76467.55
2019-06-19T10:33:02.619Z,76466.55
2019-06-19T10:35:28.747Z,76466.55
2019-06-19T10:37:54.633Z,76466.55
2019-06-19T10:40:20.498Z,76461.55
2019-06-19T10:42:46.370Z,76458.55
2019-06-19T10:45:12.241Z,76453.54
2019-06-19T10:47:38.417Z,76448.54
2019-06-19T10:50:05.397Z,76449.54
2019-06-19T10:52:31.275Z,76446.53
2019-06-19T10:54:57.140Z,76446.53
2019-06-19T10:57:23.031Z,76447.53
2019-06-19T10:59:48.899Z,76447.53
2019-06-19T11:02:14.791Z,76447.53
2019-06-19T11:04:40.939Z,76445.53
2019-06-19T11:07:06.887Z,76442.53
2019-06-19T11:09:32.795Z,76446.53
2019-06-19T11:11:58.704Z,76443.53
2019-06-19T11:14:25.012Z,76446.53
2019-06-19T11:16:50.891Z,76441.53
2019-06-19T11:19:16.748Z,76440.53
2019-06-19T11:21:42.664Z,76435.53
2019-06-19T11:24:08.551Z,76434.53
2019-06-19T11:26:34.416Z,76436.53
2019-06-19T11:29:00.282Z,76434.53
2019-06-19T11:31:26.163Z,76434.53
2019-06-19T11:33:52.047Z,76435.53
2019-06-19T11:36:18.010Z,76439.53
2019-06-19T11:38:43.885Z,76434.53
2019-06-19T11:41:09.941Z,76434.53
2019-06-19T11:43:35.925Z,76431.53
2019-06-19T11:46:02.081Z,76443.53
2019-06-19T11:48:27.941Z,76442.53
2019-06-19T11:50:53.823Z,76449.54
2019-06-19T11:53:20.435Z,76467.55
2019-06-19T11:55:46.484Z,76463.55
2019-06-19T11:58:12.377Z,76445.53
2019-06-19T12:00:38.251Z,76438.53
2019-06-19T12:03:04.146Z,76440.53
2019-06-19T12:05:30.041Z,76434.53
2019-06-19T12:07:55.951Z,76434.53
2019-06-19T12:10:21.832Z,76437.53
2019-06-19T12:12:48.011Z,76434.53
2019-06-19T12:15:14.148Z,76436.53
2019-06-19T12:17:40.016Z,76436.53
2019-06-19T12:20:06.394Z,76448.54
2019-06-19T12:22:32.250Z,76450.54
2019-06-19T12:24:58.126Z,76448.54
2019-06-19T12:27:23.987Z,76435.53
2019-06-19T12:30:05.176Z,76432.53
2019-06-19T12:32:17.531Z,76428.52
2019-06-19T12:34:43.409Z,76426.52
2019-06-19T12:37:09.310Z,76424.52
2019-06-19T12:39:35.217Z,76422.52
2019-06-19T12:42:01.090Z,76422.52
2019-06-19T12:44:26.963Z,76422.52
2019-06-19T12:46:52.867Z,76416.52
2019-06-19T12:49:18.743Z,76420.52
2019-06-19T12:51:44.613Z,76418.52
2019-06-19T12:54:10.502Z,76420.52
2019-06-19T12:56:36.663Z,76411.52
2019-06-19T12:59:02.853Z,76411.52
2019-06-19T13:01:28.776Z,76407.51
2019-06-19T13:03:54.696Z,76406.51
2019-06-19T13:06:20.577Z,76401.50
2019-06-19T13:08:46.478Z,76398.50
2019-06-19T13:11:12.348Z,76392.50
2019-06-19T13:13:38.277Z,76385.49
2019-06-19T13:16:04.132Z,76385.49
2019-06-19T13:18:30.025Z,76384.49
2019-06-19T13:20:55.893Z,76390.50
2019-06-19T13:23:21.743Z,76384.49
2019-06-19T13:25:47.612Z,76383.49
2019-06-19T13:28:13.614Z,76382.49
2019-06-19T13:30:39.466Z,76382.49
2019-06-19T13:33:05.342Z,76379.48
2019-06-19T13:35:31.279Z,76378.48
2019-06-19T13:37:57.091Z,76374.48
2019-06-19T13:40:22.977Z,76370.48
2019-06-19T13:42:48.935Z,76370.48
2019-06-19T13:45:14.805Z,76365.48
2019-06-19T13:47:40.705Z,76363.48
2019-06-19T13:50:06.664Z,76360.48
2019-06-19T13:52:32.539Z,76357.48
2019-06-19T13:54:58.453Z,76357.48
2019-06-19T13:57:24.370Z,76354.47
2019-06-19T13:59:50.514Z,76352.47
2019-06-19T14:02:16.648Z,76354.47
2019-06-19T14:04:42.556Z,76353.47
2019-06-19T14:07:19.777Z,76349.47
2019-06-19T14:09:36.137Z,76346.47
2019-06-19T14:12:02.018Z,76348.47
2019-06-19T14:14:27.892Z,76345.47
2019-06-19T14:16:53.779Z,76349.47
2019-06-19T14:19:19.636Z,76344.47
2019-06-19T14:21:45.500Z,76341.47
2019-06-19T14:24:13.881Z,76348.47
2019-06-19T14:26:39.753Z,76344.47
2019-06-19T14:29:05.641Z,76346.47
2019-06-19T14:31:31.505Z,76345.47
2019-06-19T14:33:57.380Z,76342.47
2019-06-19T14:36:23.240Z,76335.46
2019-06-19T14:38:49.121Z,76336.46
2019-06-19T14:41:15.000Z,76337.47
2019-06-19T14:43:40.869Z,76332.46
2019-06-19T14:46:06.765Z,76331.46
2019-06-19T14:48:32.632Z,76328.45
2019-06-19T14:50:58.507Z,76324.45
2019-06-19T14:53:24.375Z,76328.45
2019-06-19T14:55:50.279Z,76325.45
2019-06-19T14:58:16.171Z,76322.45
2019-06-19T15:00:54.311Z,76326.45
2019-06-19T15:03:20.283Z,76321.45
2019-06-19T15:05:46.152Z,76324.45
2019-06-19T15:08:12.131Z,76322.45
2019-06-19T15:10:38.317Z,76324.45
2019-06-19T15:13:04.171Z,76320.45
2019-06-19T15:15:30.042Z,76315.45
2019-06-19T15:17:55.954Z,76316.45
2019-06-19T15:20:21.794Z,76312.45
2019-06-19T15:22:47.943Z,76311.45
2019-06-19T15:25:13.796Z,76307.44
2019-06-19T15:27:39.872Z,76306.44
2019-06-19T15:30:05.737Z,76303.44
2019-06-19T15:32:31.599Z,76300.44
2019-06-19T15:34:57.475Z,76295.44
2019-06-19T15:37:23.346Z,76294.44
2019-06-19T15:39:51.252Z,76287.43
2019-06-19T15:42:16.929Z,76290.43
2019-06-19T15:44:42.820Z,76284.43
2019-06-19T15:47:08.826Z,76284.43
2019-06-19T15:49:34.717Z,76280.42
2019-06-19T15:52:00.866Z,76278.42
2019-06-19T15:54:26.717Z,76273.42
2019-06-19T15:56:52.663Z,76272.42
2019-06-19T15:59:18.505Z,76273.42
2019-06-19T16:01:44.417Z,76271.42
2019-06-19T16:04:10.320Z,76262.41
2019-06-19T16:06:36.242Z,76258.41
2019-06-19T16:09:02.123Z,76252.41
2019-06-19T16:11:27.985Z,76248.41
2019-06-19T16:13:54.125Z,76245.41
2019-06-19T16:16:19.997Z,76239.41
2019-06-19T16:18:45.863Z,76243.41
2019-06-19T16:21:13.752Z,76245.41
2019-06-19T16:23:39.614Z,76242.41
2019-06-19T16:26:05.487Z,76243.41
2019-06-19T16:28:31.357Z,76246.41
2019-06-19T16:30:57.258Z,76246.41
2019-06-19T16:33:23.114Z,76246.41
2019-06-19T16:35:48.981Z,76242.41
2019-06-19T16:38:14.884Z,76242.41
2019-06-19T16:40:40.745Z,76246.41
2019-06-19T16:43:06.606Z,76247.41
2019-06-19T16:45:32.481Z,76250.41
2019-06-19T16:47:58.605Z,76255.41
2019-06-19T16:50:24.476Z,76255.41
2019-06-19T16:52:53.975Z,76264.41
2019-06-19T16:55:19.831Z,76266.42
2019-06-19T16:57:45.701Z,76271.42
2019-06-19T17:00:12.395Z,76272.42
2019-06-19T17:02:38.524Z,76269.42
2019-06-19T17:05:07.551Z,76264.41
2019-06-19T17:07:33.489Z,76276.42
2019-06-19T17:09:59.481Z,76297.44
2019-06-19T17:12:25.379Z,76290.43
2019-06-19T17:14:51.252Z,76310.45
2019-06-19T17:17:17.122Z,76344.47
2019-06-19T17:19:42.995Z,76350.47
2019-06-19T17:22:08.862Z,76324.45
2019-06-19T17:24:34.858Z,76333.46
2019-06-19T17:27:00.728Z,76372.48
2019-06-19T17:29:26.626Z,76384.49
2019-06-19T17:31:52.512Z,76390.50
2019-06-19T17:34:18.411Z,76486.56
2019-06-19T17:36:44.320Z,76430.53
2019-06-19T17:39:21.413Z,76390.50
2019-06-19T17:41:37.902Z,76379.48
2019-06-19T17:44:03.810Z,76385.49
2019-06-19T17:46:29.687Z,76370.48
2019-06-19T17:48:55.987Z,76349.47
2019-06-19T17:51:21.901Z,76325.45
2019-06-19T17:53:47.799Z,76324.45
2019-06-19T17:56:13.992Z,76310.45
2019-06-19T17:58:39.948Z,76300.44
2019-06-19T18:01:05.823Z,76298.44
2019-06-19T18:03:31.900Z,76296.44
2019-06-19T18:05:57.782Z,76290.43
2019-06-19T18:08:23.690Z,76295.44
2019-06-19T18:10:49.576Z,76288.43
2019-06-19T18:13:15.599Z,76283.42
2019-06-19T18:15:44.142Z,76277.42
2019-06-19T18:18:10.074Z,76274.42
2019-06-19T18:20:35.932Z,76272.42
2019-06-19T18:23:01.817Z,76272.42
2019-06-19T18:25:27.711Z,76268.42
2019-06-19T18:27:53.870Z,76266.42
2019-06-19T18:30:21.799Z,76265.42
2019-06-19T18:32:47.694Z,76268.42
2019-06-19T18:35:13.807Z,76265.42
2019-06-19T18:37:39.668Z,76263.41
2019-06-19T18:40:06.262Z,76261.41
2019-06-19T18:42:32.483Z,76261.41
2019-06-19T18:44:58.353Z,76260.41
2019-06-19T18:47:24.260Z,76267.42
2019-06-19T18:49:50.385Z,76262.41
2019-06-19T18:52:16.268Z,76265.42
2019-06-19T18:54:42.302Z,76271.42
2019-06-19T18:57:08.169Z,76273.42
2019-06-19T18:59:34.075Z,76277.42
2019-06-19T19:01:59.961Z,76279.42
2019-06-19T19:04:25.902Z,76274.42
2019-06-19T19:06:51.958Z,76276.42
2019-06-19T19:09:17.875Z,76274.42
2019-06-19T19:11:45.663Z,76274.42
2019-06-19T19:14:13.664Z,76274.42
2019-06-19T19:16:39.639Z,76271.42
2019-06-19T19:19:05.552Z,76272.42
2019-06-19T19:21:31.453Z,76278.42
2019-06-19T19:23:57.596Z,76279.42
2019-06-19T19:26:23.763Z,76280.42
2019-06-19T19:28:49.647Z,76276.42
2019-06-19T19:31:16.071Z,76278.42
2019-06-19T19:33:42.205Z,76287.43
2019-06-19T19:36:08.226Z,76288.43
2019-06-19T19:38:34.222Z,76294.44
2019-06-19T19:41:00.079Z,76294.44
2019-06-19T19:43:26.057Z,76292.44
2019-06-19T19:45:52.004Z,76291.44
2019-06-19T19:48:17.879Z,76298.44
2019-06-19T19:50:43.764Z,76292.44
2019-06-19T19:53:09.640Z,76294.44
2019-06-19T19:55:35.691Z,76297.44
2019-06-19T19:58:01.645Z,76298.44
2019-06-19T20:00:29.483Z,76305.44
2019-06-19T20:02:55.362Z,76310.45
2019-06-19T20:05:21.230Z,76312.45
2019-06-19T20:07:47.104Z,76312.45
2019-06-19T20:10:13.576Z,76312.45
2019-06-19T20:12:39.515Z,76311.45
2019-06-19T20:15:05.796Z,76305.44
2019-06-19T20:17:31.912Z,76309.44
2019-06-19T20:19:57.792Z,76311.45
2019-06-19T20:22:23.768Z,76305.44
2019-06-19T20:24:49.670Z,76304.44
2019-06-19T20:27:15.841Z,76302.44
2019-06-19T20:29:43.766Z,76298.44
2019-06-19T20:32:09.677Z,76295.44
2019-06-19T20:34:35.545Z,76298.44
2019-06-19T20:37:01.443Z,76299.44
2019-06-19T20:39:27.303Z,76301.44
2019-06-19T20:41:53.396Z,76302.44
2019-06-19T20:44:19.275Z,76303.44
2019-06-19T20:46:45.161Z,76300.44
2019-06-19T20:49:12.447Z,76294.44
2019-06-19T20:51:38.472Z,76298.44
2019-06-19T20:54:04.635Z,76295.44
2019-06-19T20:56:30.535Z,76297.44
2019-06-19T20:59:02.407Z,76293.44
2019-06-19T21:01:24.285Z,76295.44
2019-06-19T21:03:50.144Z,76296.44
2019-06-19T21:06:16.142Z,76296.44
2019-06-19T21:08:42.060Z,76290.43
2019-06-19T21:11:19.795Z,76292.44
2019-06-19T21:13:35.661Z,76291.44
2019-06-19T21:16:03.236Z,76295.44
2019-06-19T21:18:29.454Z,76295.44
2019-06-19T21:20:55.340Z,76292.44
2019-06-19T21:23:21.214Z,76293.44
2019-06-19T21:25:47.162Z,76295.44
2019-06-19T21:28:13.093Z,76294.44
2019-06-19T21:30:39.136Z,76295.44
2019-06-19T21:33:05.021Z,76290.43
2019-06-19T21:35:30.888Z,76290.43
2019-06-19T21:37:56.764Z,76294.44
2019-06-19T21:40:22.629Z,76296.44
2019-06-19T21:42:48.488Z,76299.44
2019-06-19T21:45:14.363Z,76302.44
2019-06-19T21:47:40.242Z,76298.44
2019-06-19T21:50:06.259Z,76299.44
2019-06-19T21:52:32.119Z,76300.44
2019-06-19T21:54:58.287Z,76302.44
2019-06-19T21:57:24.290Z,76302.44
2019-06-19T21:59:50.438Z,76300.44
2019-06-19T22:02:16.768Z,76300.44
2019-06-19T22:04:43.658Z,76305.44
2019-06-19T22:07:10.225Z,76315.45
2019-06-19T22:09:36.580Z,76341.47
2019-06-19T22:12:02.918Z,76339.47
2019-06-19T22:14:29.547Z,76318.45
2019-06-19T22:16:58.290Z,76322.45
2019-06-19T22:19:24.158Z,76332.46
2019-06-19T22:21:50.195Z,76340.47
2019-06-19T22:24:16.371Z,76338.47
2019-06-19T22:26:42.710Z,76334.46
2019-06-19T22:29:09.067Z,76330.46
2019-06-19T22:31:35.283Z,76337.47
2019-06-19T22:34:01.659Z,76334.46
2019-06-19T22:36:28.063Z,76334.46
2019-06-19T22:38:54.777Z,76326.45
2019-06-19T22:41:21.173Z,76326.45
2019-06-19T22:43:47.046Z,76326.45
2019-06-19T22:46:12.913Z,76326.45
2019-06-19T22:48:38.785Z,76328.45
2019-06-19T22:51:04.681Z,76336.46
2019-06-19T22:53:30.544Z,76335.46
2019-06-19T22:55:56.430Z,76338.47
2019-06-19T22:58:22.433Z,76338.47
2019-06-19T23:00:48.297Z,76346.47
2019-06-19T23:03:34.216Z,76352.47
2019-06-19T23:06:09.428Z,76359.48
2019-06-19T23:08:35.307Z,76362.48
2019-06-19T23:11:01.331Z,76361.48
2019-06-19T23:13:27.316Z,76362.48
2019-06-19T23:15:53.494Z,76355.48
2019-06-19T23:18:19.657Z,76353.47
2019-06-19T23:20:45.946Z,76357.48
2019-06-19T23:23:14.786Z,76363.48
2019-06-19T23:25:40.635Z,76367.48
2019-06-19T23:28:06.495Z,76364.48
2019-06-19T23:30:32.581Z,76363.48
2019-06-19T23:32:58.488Z,76358.48
2019-06-19T23:35:24.439Z,76363.48
2019-06-19T23:37:50.785Z,76364.48
2019-06-19T23:40:16.597Z,76362.48
2019-06-19T23:42:44.399Z,76360.48
2019-06-19T23:45:10.217Z,76356.48
2019-06-19T23:47:36.622Z,76358.48
2019-06-19T23:50:03.791Z,76352.47
2019-06-19T23:52:29.648Z,76350.47
2019-06-19T23:54:55.518Z,76355.48
2019-06-19T23:57:21.408Z,76352.47
2019-06-19T23:59:47.278Z,76350.47
